Time;durP1;ratioP1;P1;durP2;ratioP2;P2;SDS_P1;SDS_P2;PMS_P1;PMS_P2;Temp;Humidity;BMP_temperature;BMP_pressure;BME280_temperature;BME280_humidity;BME280_pressure;Samples;Min_cycle;Max_cycle;Signal;HPM_P1;HPM_P2
2021/12/01 00:00:47;;;;;;;12.37;8.20;;;2.90;99.90;;;;;;6104626;28;20909;-67
2021/12/01 00:03:50;;;;;;;9.37;8.03;;;2.90;99.90;;;;;;6104484;28;20820;-67
2021/12/01 00:06:53;;;;;;;11.77;7.60;;;3.00;99.90;;;;;;6104193;28;20563;-66
2021/12/01 00:09:56;;;;;;;11.40;8.30;;;3.00;99.90;;;;;;6104277;28;20792;-67
2021/12/01 00:13:00;;;;;;;11.30;9.27;;;2.90;99.90;;;;;;6104565;28;20824;-67
2021/12/01 00:16:07;;;;;;;13.83;11.27;;;2.90;99.90;;;;;;6104109;28;20483;-65
2021/12/01 00:19:11;;;;;;;13.43;10.23;;;2.90;99.90;;;;;;6103937;28;20477;-66
2021/12/01 00:22:14;;;;;;;11.67;10.17;;;2.90;99.90;;;;;;6104184;28;20479;-65
2021/12/01 00:25:23;;;;;;;13.27;10.43;;;2.90;99.90;;;;;;6103376;28;20476;-66
2021/12/01 00:28:26;;;;;;;12.47;9.40;;;2.90;99.90;;;;;;6104612;28;20429;-66
2021/12/01 00:31:31;;;;;;;10.23;9.13;;;2.90;99.90;;;;;;6104527;28;20444;-66
2021/12/01 00:34:34;;;;;;;9.77;8.07;;;2.90;99.90;;;;;;6103949;28;20500;-67
2021/12/01 00:37:38;;;;;;;10.10;7.53;;;2.90;99.90;;;;;;6103339;28;20841;-66
2021/12/01 00:40:41;;;;;;;9.87;7.93;;;2.90;99.90;;;;;;6104029;28;20869;-67
2021/12/01 00:43:44;;;;;;;8.43;7.63;;;2.90;99.90;;;;;;6103256;28;20487;-66
2021/12/01 00:46:55;;;;;;;10.80;7.40;;;2.90;99.90;;;;;;6099925;28;20473;-67
2021/12/01 00:49:59;;;;;;;10.07;7.03;;;2.90;99.90;;;;;;6103735;28;20963;-66
2021/12/01 00:53:04;;;;;;;11.03;6.70;;;2.80;99.90;;;;;;6103783;28;20476;-68
2021/12/01 00:56:08;;;;;;;7.93;6.87;;;2.70;99.90;;;;;;6103202;28;20500;-67
2021/12/01 00:59:11;;;;;;;9.90;8.20;;;2.70;99.90;;;;;;6103726;28;20863;-66
2021/12/01 01:02:16;;;;;;;10.37;7.27;;;2.70;99.90;;;;;;6102943;28;20820;-66
2021/12/01 01:05:19;;;;;;;8.53;6.40;;;2.70;99.90;;;;;;6103619;28;20508;-68
2021/12/01 01:08:22;;;;;;;7.40;6.70;;;2.80;99.90;;;;;;6103436;28;20476;-66
2021/12/01 01:18:08;;;;;;;7.87;5.73;;;2.80;99.90;;;;;;6103303;28;20488;-65
2021/12/01 01:21:12;;;;;;;9.33;6.37;;;2.80;99.90;;;;;;6102569;28;20492;-66
2021/12/01 01:24:16;;;;;;;5.43;4.93;;;2.60;99.90;;;;;;6103286;28;20484;-65
2021/12/01 01:27:19;;;;;;;8.60;5.90;;;2.60;99.90;;;;;;6103069;28;20468;-67
2021/12/01 01:30:23;;;;;;;5.80;4.80;;;2.60;99.90;;;;;;6103233;28;20479;-66
2021/12/01 01:33:27;;;;;;;6.60;4.93;;;2.60;99.90;;;;;;6103163;28;20491;-66
2021/12/01 01:36:31;;;;;;;6.57;5.60;;;2.60;99.90;;;;;;6103948;28;20492;-66
2021/12/01 01:39:34;;;;;;;7.20;5.13;;;2.60;99.90;;;;;;6106169;28;20483;-66
2021/12/01 01:42:38;;;;;;;5.47;4.90;;;2.70;99.90;;;;;;6103695;28;20977;-66
2021/12/01 01:45:41;;;;;;;6.87;4.90;;;2.70;99.90;;;;;;6103195;28;20488;-67
2021/12/01 01:48:48;;;;;;;6.73;5.20;;;2.70;99.90;;;;;;6102821;28;20476;-66
2021/12/01 01:51:51;;;;;;;5.77;5.00;;;2.70;99.90;;;;;;6098707;28;20562;-66
2021/12/01 01:54:55;;;;;;;8.27;4.73;;;2.80;99.90;;;;;;6102450;28;20594;-66
2021/12/01 01:57:59;;;;;;;6.73;5.30;;;2.80;99.90;;;;;;6102919;28;20477;-65
2021/12/01 02:01:07;;;;;;;6.00;5.37;;;2.80;99.90;;;;;;6102923;28;20472;-66
2021/12/01 02:04:12;;;;;;;5.93;4.83;;;2.90;99.90;;;;;;6102713;28;20549;-66
2021/12/01 02:07:15;;;;;;;5.63;5.13;;;2.90;99.90;;;;;;6102856;28;20476;-67
2021/12/01 02:10:19;;;;;;;5.07;4.40;;;2.90;99.90;;;;;;6103747;28;20460;-66
2021/12/01 02:13:22;;;;;;;5.47;4.97;;;2.90;99.90;;;;;;6102539;28;20457;-66
2021/12/01 02:16:26;;;;;;;5.73;4.50;;;2.90;99.90;;;;;;6117250;28;20506;-68
2021/12/01 02:19:30;;;;;;;5.40;4.90;;;3.00;99.90;;;;;;6123359;28;21033;-68
2021/12/01 02:22:35;;;;;;;5.80;4.83;;;2.90;99.90;;;;;;6125047;28;20451;-66
2021/12/01 02:25:38;;;;;;;6.70;4.80;;;2.90;99.90;;;;;;6125005;28;20468;-66
2021/12/01 02:28:44;;;;;;;9.73;5.57;;;3.00;99.90;;;;;;6119039;28;20947;-66
2021/12/01 02:31:48;;;;;;;5.33;3.80;;;3.00;99.90;;;;;;6124941;28;20849;-65
2021/12/01 02:34:52;;;;;;;3.67;3.37;;;3.00;99.90;;;;;;6123748;28;20467;-65
2021/12/01 02:37:57;;;;;;;4.20;3.80;;;3.00;99.90;;;;;;6122478;28;20990;-64
2021/12/01 02:41:00;;;;;;;4.30;3.90;;;3.00;99.90;;;;;;6124316;28;20807;-67
2021/12/01 02:44:06;;;;;;;3.50;3.20;;;2.90;99.90;;;;;;6119279;28;20993;-68
2021/12/01 02:47:10;;;;;;;5.30;4.80;;;3.00;99.90;;;;;;6124487;28;20971;-68
2021/12/01 02:50:13;;;;;;;7.40;6.47;;;2.90;99.90;;;;;;6128529;28;20475;-66
2021/12/01 02:53:21;;;;;;;12.60;8.00;;;2.90;99.90;;;;;;6127081;28;20475;-67
2021/12/01 02:56:27;;;;;;;6.07;5.33;;;3.00;99.90;;;;;;6127323;28;20487;-66
2021/12/01 02:59:30;;;;;;;6.03;4.17;;;3.00;99.90;;;;;;6127903;28;20479;-67
2021/12/01 03:02:33;;;;;;;5.00;4.50;;;3.00;99.90;;;;;;6127528;28;20475;-66
2021/12/01 03:05:37;;;;;;;9.40;7.60;;;3.00;99.90;;;;;;6126704;28;20970;-66
2021/12/01 03:08:43;;;;;;;7.43;6.63;;;3.00;99.90;;;;;;6128678;28;20490;-66
2021/12/01 03:11:46;;;;;;;11.07;7.67;;;3.00;99.90;;;;;;6128771;28;20498;-66
2021/12/01 03:14:52;;;;;;;11.17;8.60;;;3.10;99.90;;;;;;6129858;28;20486;-66
2021/12/01 03:17:55;;;;;;;9.97;7.37;;;3.10;99.90;;;;;;6129326;28;20479;-67
2021/12/01 03:20:58;;;;;;;10.03;7.27;;;3.10;99.90;;;;;;6129865;28;20476;-67
2021/12/01 03:24:03;;;;;;;8.30;6.60;;;3.00;99.90;;;;;;6129877;28;20479;-67
2021/12/01 03:27:07;;;;;;;9.23;6.70;;;3.00;99.90;;;;;;6129879;28;20487;-65
2021/12/01 03:30:13;;;;;;;6.80;6.13;;;3.00;99.90;;;;;;6130112;28;20873;-68
2021/12/01 03:33:18;;;;;;;7.27;4.87;;;3.00;99.90;;;;;;6129500;28;20479;-66
2021/12/01 03:36:22;;;;;;;7.20;4.93;;;3.00;99.90;;;;;;6129879;28;20484;-67
2021/12/01 03:39:27;;;;;;;7.90;4.97;;;3.00;99.90;;;;;;6130036;28;20487;-68
2021/12/01 03:42:30;;;;;;;7.43;5.13;;;2.90;99.90;;;;;;6129888;28;20924;-68
2021/12/01 03:45:34;;;;;;;6.27;4.20;;;2.80;99.90;;;;;;6129199;28;20558;-67
2021/12/01 03:48:37;;;;;;;5.93;3.67;;;2.80;99.90;;;;;;6128717;28;20490;-65
2021/12/01 03:51:40;;;;;;;5.40;4.33;;;2.90;99.90;;;;;;6123504;28;20468;-66
2021/12/01 03:54:45;;;;;;;5.00;3.93;;;2.90;99.90;;;;;;6106121;28;20488;-66
2021/12/01 03:57:48;;;;;;;5.07;4.07;;;2.90;99.90;;;;;;6106588;28;20485;-66
2021/12/01 04:00:51;;;;;;;8.27;4.77;;;3.00;99.90;;;;;;6095671;28;20491;-65
2021/12/01 04:03:54;;;;;;;4.00;3.70;;;3.00;99.90;;;;;;6104851;28;20495;-65
2021/12/01 04:06:58;;;;;;;4.43;4.00;;;3.00;99.90;;;;;;6105088;28;20485;-65
2021/12/01 04:10:05;;;;;;;4.27;3.80;;;3.10;99.90;;;;;;6104923;28;20480;-66
2021/12/01 04:13:08;;;;;;;4.03;3.47;;;3.10;99.90;;;;;;6104391;28;20483;-65
2021/12/01 04:16:11;;;;;;;6.90;3.27;;;3.20;99.90;;;;;;6104998;28;20477;-65
2021/12/01 04:19:14;;;;;;;6.63;4.83;;;3.30;99.90;;;;;;6104697;28;20472;-65
2021/12/01 04:22:18;;;;;;;4.77;3.67;;;3.30;99.90;;;;;;6104948;28;20472;-63
2021/12/01 04:25:22;;;;;;;5.60;4.60;;;3.30;99.90;;;;;;6104348;28;20491;-63
2021/12/01 04:28:25;;;;;;;4.40;3.50;;;3.40;99.90;;;;;;6104211;28;20804;-63
2021/12/01 04:31:29;;;;;;;4.40;3.67;;;3.40;99.90;;;;;;6104405;28;20452;-66
2021/12/01 04:34:33;;;;;;;6.20;3.23;;;3.40;99.90;;;;;;6103749;28;20779;-67
2021/12/01 04:37:36;;;;;;;7.73;4.67;;;3.40;99.90;;;;;;6103625;28;20817;-64
2021/12/01 04:40:41;;;;;;;7.53;4.53;;;3.50;99.90;;;;;;6104277;28;20472;-66
2021/12/01 04:43:46;;;;;;;4.30;3.87;;;3.60;99.90;;;;;;6103931;28;20476;-65
2021/12/01 04:46:56;;;;;;;5.07;3.87;;;3.50;99.90;;;;;;6104082;28;20481;-65
2021/12/01 04:49:59;;;;;;;4.27;3.70;;;3.50;99.90;;;;;;6104499;28;20476;-65
2021/12/01 04:53:03;;;;;;;4.53;3.60;;;3.50;99.90;;;;;;6103942;28;20487;-64
2021/12/01 04:56:08;;;;;;;3.97;3.57;;;3.50;99.90;;;;;;6104098;28;20856;-64
2021/12/01 04:59:11;;;;;;;5.60;3.13;;;3.60;99.90;;;;;;6103460;28;20961;-65
2021/12/01 05:02:14;;;;;;;5.47;3.57;;;3.60;99.90;;;;;;6099520;28;20483;-66
2021/12/01 05:05:18;;;;;;;4.00;3.57;;;3.60;99.90;;;;;;6103663;28;20497;-64
2021/12/01 05:08:22;;;;;;;5.90;3.40;;;3.60;99.90;;;;;;6103985;28;20476;-68
2021/12/01 05:11:27;;;;;;;4.00;3.60;;;3.60;99.90;;;;;;6103484;28;20484;-68
2021/12/01 05:14:45;;;;;;;3.30;3.00;;;3.70;99.90;;;;;;6103862;28;20499;-64
2021/12/01 05:17:49;;;;;;;4.70;3.70;;;3.70;99.90;;;;;;6103342;28;20976;-65
2021/12/01 05:20:52;;;;;;;5.97;4.10;;;3.70;99.90;;;;;;6104307;28;20480;-66
2021/12/01 05:23:56;;;;;;;5.10;4.60;;;3.80;99.90;;;;;;6103219;28;20491;-65
2021/12/01 05:27:00;;;;;;;5.20;4.80;;;3.80;99.90;;;;;;6103045;28;20480;-64
2021/12/01 05:30:04;;;;;;;10.13;6.17;;;3.70;99.90;;;;;;6103534;28;21001;-65
2021/12/01 05:33:09;;;;;;;7.03;6.13;;;3.80;99.90;;;;;;6103673;28;20480;-66
2021/12/01 05:36:17;;;;;;;6.63;5.60;;;3.70;99.90;;;;;;6103305;28;20485;-65
2021/12/01 05:39:20;;;;;;;5.60;5.10;;;3.70;99.90;;;;;;6103494;28;20972;-65
2021/12/01 05:42:24;;;;;;;4.87;4.37;;;3.80;99.90;;;;;;6103697;28;20477;-65
2021/12/01 05:45:28;;;;;;;7.87;5.07;;;3.80;99.90;;;;;;6102825;28;20480;-65
2021/12/01 05:48:31;;;;;;;6.03;4.10;;;3.90;99.90;;;;;;6102898;28;20984;-68
2021/12/01 05:51:34;;;;;;;4.10;3.70;;;3.90;99.90;;;;;;6103134;28;20491;-67
2021/12/01 05:54:38;;;;;;;5.30;4.47;;;3.90;99.90;;;;;;6103151;28;20472;-66
2021/12/01 05:57:42;;;;;;;4.53;4.13;;;3.90;99.90;;;;;;6102499;28;20852;-66
2021/12/01 06:00:46;;;;;;;8.03;5.77;;;3.90;99.90;;;;;;6102736;28;20480;-67
2021/12/01 06:03:50;;;;;;;6.43;5.80;;;4.00;99.90;;;;;;6102678;28;20555;-67
2021/12/01 06:06:54;;;;;;;7.97;6.30;;;4.00;99.90;;;;;;6102708;28;20499;-67
2021/12/01 06:10:00;;;;;;;7.20;6.43;;;3.90;99.90;;;;;;6102713;28;20999;-65
2021/12/01 06:13:06;;;;;;;6.37;5.77;;;4.00;99.90;;;;;;6102827;28;20937;-65
2021/12/01 06:16:09;;;;;;;6.43;5.30;;;4.00;99.90;;;;;;6102725;28;20472;-65
2021/12/01 06:19:12;;;;;;;5.83;5.27;;;4.00;99.90;;;;;;6102599;28;20563;-66
2021/12/01 06:22:15;;;;;;;5.67;5.03;;;4.00;99.90;;;;;;6102872;28;20991;-67
2021/12/01 06:25:18;;;;;;;6.03;5.43;;;4.00;99.90;;;;;;6106634;28;20444;-68
2021/12/01 06:28:29;;;;;;;9.20;7.10;;;3.80;99.90;;;;;;6106374;28;20586;-66
2021/12/01 06:31:32;;;;;;;12.13;6.60;;;3.60;99.90;;;;;;6106460;28;20463;-68
2021/12/01 06:34:35;;;;;;;8.30;6.50;;;3.50;99.90;;;;;;6106636;28;20932;-65
2021/12/01 06:37:38;;;;;;;12.10;7.63;;;3.40;99.90;;;;;;6106197;28;20948;-66
2021/12/01 06:40:43;;;;;;;8.60;6.57;;;3.40;99.90;;;;;;6106596;28;20472;-65
2021/12/01 06:43:48;;;;;;;7.77;6.97;;;3.50;99.90;;;;;;6106529;28;20472;-66
2021/12/01 06:46:52;;;;;;;7.60;6.80;;;3.60;99.90;;;;;;6106530;28;20480;-65
2021/12/01 06:49:55;;;;;;;7.63;6.90;;;3.70;99.90;;;;;;6106140;28;20484;-67
2021/12/01 06:53:00;;;;;;;7.70;6.10;;;3.80;99.90;;;;;;6106270;28;20476;-67
2021/12/01 06:56:04;;;;;;;6.70;6.00;;;3.80;99.90;;;;;;6106381;28;20818;-67
2021/12/01 06:59:09;;;;;;;7.07;5.73;;;3.80;99.90;;;;;;6105953;28;20495;-65
2021/12/01 07:02:12;;;;;;;6.20;5.00;;;3.80;99.90;;;;;;6105297;28;20843;-65
2021/12/01 07:05:15;;;;;;;8.80;5.80;;;3.90;99.90;;;;;;6105913;28;20476;-66
2021/12/01 07:08:19;;;;;;;6.43;5.67;;;4.00;99.90;;;;;;6105836;28;20484;-66
2021/12/01 07:11:22;;;;;;;88.23;55.67;;;4.00;99.90;;;;;;6097699;28;20480;-66
2021/12/01 07:14:27;;;;;;;11.67;9.37;;;4.10;99.90;;;;;;6105487;28;20834;-67
2021/12/01 07:17:30;;;;;;;7.10;5.67;;;4.20;99.90;;;;;;6105203;28;20483;-65
2021/12/01 07:20:33;;;;;;;7.90;6.03;;;4.20;99.90;;;;;;6105278;28;20483;-65
2021/12/01 07:23:36;;;;;;;7.10;6.03;;;4.30;99.90;;;;;;6108107;28;20968;-65
2021/12/01 07:26:40;;;;;;;7.80;6.30;;;4.30;99.90;;;;;;6107382;28;20499;-65
2021/12/01 07:29:45;;;;;;;8.83;7.57;;;4.40;99.90;;;;;;6108539;28;20472;-66
2021/12/01 07:32:49;;;;;;;5.70;5.20;;;4.40;99.90;;;;;;6107362;28;20476;-65
2021/12/01 07:35:53;;;;;;;7.53;6.00;;;4.40;99.90;;;;;;6106972;28;20484;-65
2021/12/01 07:38:58;;;;;;;8.57;7.20;;;4.50;99.90;;;;;;6105731;28;20979;-68
2021/12/01 07:42:01;;;;;;;10.20;6.80;;;4.50;99.90;;;;;;6105577;28;20994;-68
2021/12/01 07:45:07;;;;;;;7.53;5.60;;;4.60;99.90;;;;;;6106319;28;20492;-68
2021/12/01 07:48:11;;;;;;;8.60;7.40;;;4.70;99.90;;;;;;6106239;28;20801;-65
2021/12/01 07:51:15;;;;;;;6.90;5.80;;;4.80;99.90;;;;;;6105426;28;20796;-64
2021/12/01 07:54:19;;;;;;;8.20;7.00;;;4.80;99.90;;;;;;6104794;28;20845;-64
2021/12/01 07:57:22;;;;;;;8.43;6.70;;;4.90;99.90;;;;;;6104439;28;20473;-65
2021/12/01 08:00:26;;;;;;;12.20;7.63;;;4.90;99.90;;;;;;6104641;28;20476;-67
2021/12/01 08:03:30;;;;;;;7.43;6.27;;;4.90;99.90;;;;;;6105243;28;20941;-65
2021/12/01 08:06:33;;;;;;;13.20;7.37;;;5.00;99.90;;;;;;6103955;28;21007;-67
2021/12/01 08:09:36;;;;;;;12.67;7.70;;;5.00;99.90;;;;;;6104459;28;20477;-65
2021/12/01 08:12:40;;;;;;;11.80;7.77;;;5.00;99.90;;;;;;6104743;28;20484;-65
2021/12/01 08:15:46;;;;;;;12.30;8.10;;;5.10;99.90;;;;;;6099696;28;20980;-67
2021/12/01 08:18:54;;;;;;;14.07;8.40;;;5.20;99.90;;;;;;6104358;28;20976;-68
2021/12/01 08:21:57;;;;;;;8.30;7.07;;;5.40;99.90;;;;;;6105643;28;20817;-67
2021/12/01 08:25:00;;;;;;;8.27;7.23;;;5.40;99.90;;;;;;6104665;28;20485;-65
2021/12/01 08:28:04;;;;;;;13.60;8.40;;;5.50;99.90;;;;;;6104020;28;21003;-66
2021/12/01 08:31:08;;;;;;;13.50;10.40;;;5.60;99.90;;;;;;6104145;28;20488;-66
2021/12/01 08:34:13;;;;;;;13.87;10.13;;;5.70;99.90;;;;;;6104260;28;20480;-67
2021/12/01 08:37:18;;;;;;;13.93;10.27;;;5.70;99.90;;;;;;6103948;28;20495;-67
2021/12/01 08:40:21;;;;;;;13.77;10.43;;;5.70;99.90;;;;;;6104048;28;20460;-66
2021/12/01 08:43:24;;;;;;;13.10;9.20;;;5.70;99.90;;;;;;6103924;28;20905;-65
2021/12/01 08:46:29;;;;;;;12.73;10.00;;;5.70;99.90;;;;;;6103974;28;20469;-65
2021/12/01 08:49:32;;;;;;;10.47;9.17;;;5.70;99.90;;;;;;6104152;28;20488;-66
2021/12/01 08:52:36;;;;;;;12.87;9.93;;;5.80;99.90;;;;;;6158397;28;20468;-67
2021/12/01 08:55:41;;;;;;;14.43;9.27;;;5.70;99.90;;;;;;6154637;28;20464;-65
2021/12/01 08:58:44;;;;;;;9.40;8.40;;;5.80;99.90;;;;;;6224661;28;20470;-64
2021/12/01 09:01:48;;;;;;;14.87;9.80;;;5.80;99.90;;;;;;6103714;28;20471;-65
2021/12/01 09:04:52;;;;;;;10.10;9.10;;;5.80;99.90;;;;;;6103887;28;20512;-66
2021/12/01 09:07:55;;;;;;;12.97;9.00;;;5.90;99.90;;;;;;6103582;28;20477;-65
2021/12/01 09:11:02;;;;;;;10.33;8.27;;;6.00;99.90;;;;;;6103913;28;20487;-65
2021/12/01 09:14:05;;;;;;;9.77;8.80;;;6.20;99.90;;;;;;6103462;28;20468;-65
2021/12/01 09:17:12;;;;;;;9.83;8.30;;;6.30;99.90;;;;;;6103912;28;20546;-64
2021/12/01 09:20:15;;;;;;;11.70;9.60;;;6.40;99.90;;;;;;6099778;28;20487;-66
2021/12/01 09:23:19;;;;;;;15.20;10.00;;;6.70;99.90;;;;;;6103065;28;20480;-65
2021/12/01 09:26:23;;;;;;;15.70;10.20;;;7.00;99.90;;;;;;6189005;28;20479;-66
2021/12/01 09:29:27;;;;;;;10.13;9.10;;;7.30;99.90;;;;;;6226644;28;20499;-67
2021/12/01 09:32:34;;;;;;;15.63;10.80;;;7.50;99.90;;;;;;6226322;28;20468;-64
2021/12/01 09:35:38;;;;;;;17.87;10.47;;;7.30;99.30;;;;;;6226695;28;20487;-64
2021/12/01 09:38:41;;;;;;;15.93;10.37;;;7.40;99.40;;;;;;6226169;28;20518;-65
2021/12/01 09:41:45;;;;;;;15.87;11.50;;;7.00;99.40;;;;;;6226880;28;20475;-68
2021/12/01 09:44:50;;;;;;;19.17;13.40;;;6.90;99.50;;;;;;6226203;28;20478;-68
2021/12/01 09:47:55;;;;;;;17.40;11.77;;;7.10;99.90;;;;;;6225674;28;20486;-67
2021/12/01 09:50:59;;;;;;;19.63;11.30;;;7.30;99.20;;;;;;6220958;28;20472;-63
2021/12/01 09:54:02;;;;;;;16.93;11.47;;;7.40;98.90;;;;;;6103167;28;20483;-63
2021/12/01 09:57:06;;;;;;;16.60;11.57;;;7.40;98.70;;;;;;6101721;28;20973;-65
2021/12/01 10:00:10;;;;;;;13.70;10.80;;;7.50;98.40;;;;;;6102378;28;20468;-66
2021/12/01 10:03:14;;;;;;;13.30;9.90;;;7.50;98.40;;;;;;6102671;28;20472;-66
2021/12/01 10:06:19;;;;;;;11.63;9.63;;;7.50;98.40;;;;;;6102056;28;20477;-66
2021/12/01 10:09:23;;;;;;;16.60;10.20;;;7.60;98.40;;;;;;6102706;28;20576;-66
2021/12/01 10:12:44;;;;;;;12.57;7.97;;;7.60;98.40;;;;;;6103204;28;20491;-68
2021/12/01 10:15:47;;;;;;;10.33;8.53;;;7.70;98.00;;;;;;6103245;28;20548;-69
2021/12/01 10:18:54;;;;;;;16.87;9.37;;;7.70;98.10;;;;;;6102164;28;20499;-69
2021/12/01 10:21:59;;;;;;;11.17;9.90;;;7.90;98.10;;;;;;6102977;28;20481;-68
2021/12/01 10:25:02;;;;;;;15.07;8.87;;;8.10;98.00;;;;;;6092974;28;20472;-69
2021/12/01 10:28:05;;;;;;;15.10;9.90;;;8.30;97.60;;;;;;6102410;28;20489;-69
2021/12/01 10:31:09;;;;;;;11.33;8.97;;;8.50;97.40;;;;;;6102384;28;20472;-68
2021/12/01 10:34:36;;;;;;;12.60;9.50;;;8.80;97.10;;;;;;6102883;28;20472;-68
2021/12/01 10:37:40;;;;;;;13.07;11.13;;;9.10;96.60;;;;;;6102099;28;20480;-67
2021/12/01 10:40:43;;;;;;;17.57;9.80;;;9.30;95.50;;;;;;6102478;28;20471;-69
2021/12/01 10:43:49;;;;;;;12.20;9.47;;;9.60;95.70;;;;;;6102310;28;20468;-69
2021/12/01 10:46:53;;;;;;;21.80;9.63;;;9.90;94.60;;;;;;6102115;28;20483;-69
2021/12/01 10:49:59;;;;;;;15.23;8.23;;;10.50;93.60;;;;;;6102356;28;20468;-67
2021/12/01 10:53:05;;;;;;;13.20;8.93;;;11.00;92.50;;;;;;6125971;28;20483;-67
2021/12/01 10:56:09;;;;;;;9.50;7.90;;;11.50;91.80;;;;;;6225089;28;20479;-65
2021/12/01 10:59:15;;;;;;;8.93;8.10;;;11.90;90.50;;;;;;6224973;28;20472;-65
2021/12/01 11:02:19;;;;;;;12.40;8.10;;;12.30;88.50;;;;;;6224659;28;20831;-67
2021/12/01 11:05:29;;;;;;;10.70;8.70;;;12.80;86.30;;;;;;6226199;28;20482;-68
2021/12/01 11:08:37;;;;;;;8.93;8.03;;;12.90;83.70;;;;;;6226737;28;20491;-67
2021/12/01 11:11:43;;;;;;;12.67;8.37;;;12.90;82.80;;;;;;6229350;28;20487;-65
2021/12/01 11:15:17;;;;;;;13.03;7.90;;;12.90;82.40;;;;;;6204757;28;20469;-67
2021/12/01 11:18:22;;;;;;;9.10;6.43;;;13.00;81.20;;;;;;6206065;28;20469;-68
2021/12/01 11:21:43;;;;;;;8.43;6.20;;;13.20;80.20;;;;;;6206868;28;20546;-65
2021/12/01 11:24:46;;;;;;;11.23;10.07;;;13.30;78.00;;;;;;6204333;28;20492;-66
2021/12/01 11:27:49;;;;;;;8.33;7.60;;;13.60;77.20;;;;;;6222751;28;20549;-66
2021/12/01 11:30:56;;;;;;;7.57;6.87;;;13.80;74.70;;;;;;6229172;28;20464;-67
2021/12/01 11:34:01;;;;;;;8.43;6.60;;;13.50;73.60;;;;;;6230093;28;20487;-68
2021/12/01 11:37:06;;;;;;;7.40;5.97;;;13.40;73.80;;;;;;6227925;28;20495;-69
2021/12/01 11:40:10;;;;;;;9.43;6.87;;;13.10;73.40;;;;;;6228612;28;20483;-68
2021/12/01 11:43:16;;;;;;;7.53;5.90;;;12.80;73.40;;;;;;6228400;28;20514;-67
2021/12/01 11:46:19;;;;;;;11.03;8.40;;;13.30;75.40;;;;;;6104805;28;20476;-71
2021/12/01 11:49:24;;;;;;;9.77;5.00;;;15.50;68.80;;;;;;6106400;28;20495;-68
2021/12/01 11:52:38;;;;;;;5.00;4.27;;;18.50;60.60;;;;;;6105784;28;20598;-70
2021/12/01 11:56:00;;;;;;;7.00;6.40;;;22.80;47.30;;;;;;6105110;28;20496;-71
2021/12/01 11:59:21;;;;;;;6.87;5.90;;;26.30;37.80;;;;;;6104791;28;20229;-68
2021/12/01 12:02:26;;;;;;;8.20;6.10;;;29.20;32.30;;;;;;6105609;28;20306;-69
2021/12/01 12:05:29;;;;;;;8.03;6.10;;;31.10;28.50;;;;;;6105421;28;20246;-71
2021/12/01 12:08:58;;;;;;;7.70;6.30;;;32.30;26.10;;;;;;6104450;28;20239;-66
2021/12/01 12:12:20;;;;;;;8.03;5.87;;;33.10;24.40;;;;;;6104054;28;20246;-67
2021/12/01 12:15:42;;;;;;;8.70;6.43;;;33.70;23.20;;;;;;6104911;28;20232;-67
2021/12/01 12:18:52;;;;;;;7.65;5.65;;;34.10;22.40;;;;;;6104739;28;20553;-68
2021/12/01 12:22:01;;;;;;;5.22;4.43;;;34.50;22.10;;;;;;6103941;28;20227;-68
2021/12/01 12:25:09;;;;;;;7.25;5.13;;;34.80;21.30;;;;;;6104505;28;20246;-68
2021/12/01 12:28:32;;;;;;;8.88;5.72;;;34.60;20.90;;;;;;6103901;28;20578;-67
2021/12/01 12:35:43;;;;;;;18.83;12.23;;;30.70;22.60;;;;;;6103811;28;20235;-67
2021/12/01 12:39:02;;;;;;;9.87;7.00;;;27.70;25.90;;;;;;6103941;28;20589;-68
2021/12/01 12:42:12;;;;;;;19.47;8.50;;;28.30;25.90;;;;;;6104389;28;20236;-67
2021/12/01 12:45:26;;;;;;;7.53;5.80;;;30.30;24.80;;;;;;6103943;28;20239;-67
2021/12/01 12:48:33;;;;;;;9.37;5.07;;;32.20;23.50;;;;;;6103917;28;20315;-69
2021/12/01 12:51:38;;;;;;;6.22;4.90;;;33.30;22.80;;;;;;6103963;28;20228;-66
2021/12/01 12:54:41;;;;;;;6.30;5.20;;;34.10;21.70;;;;;;6104114;28;20231;-66
2021/12/01 12:57:52;;;;;;;5.50;5.00;;;32.90;21.30;;;;;;6103647;28;20246;-67
2021/12/01 13:00:57;;;;;;;5.13;4.60;;;31.20;22.50;;;;;;6103489;28;20232;-65
2021/12/01 13:04:06;;;;;;;7.60;5.30;;;30.70;23.40;;;;;;6103288;28;20676;-66
2021/12/01 13:07:42;;;;;;;5.83;4.63;;;31.60;22.80;;;;;;6103091;28;20573;-67
2021/12/01 13:10:45;;;;;;;8.63;5.00;;;32.60;22.10;;;;;;6102929;28;20242;-67
2021/12/01 13:13:53;;;;;;;5.77;4.00;;;33.10;21.40;;;;;;6103531;28;20243;-67
2021/12/01 13:17:01;;;;;;;7.80;5.83;;;31.70;21.70;;;;;;6102867;28;20247;-64
2021/12/01 13:20:05;;;;;;;6.53;5.27;;;28.30;24.10;;;;;;6102552;28;20236;-64
2021/12/01 13:23:19;;;;;;;7.33;6.63;;;25.30;26.70;;;;;;6102569;28;20569;-67
2021/12/01 13:26:28;;;;;;;6.83;5.70;;;22.80;29.00;;;;;;6102628;28;20692;-66
2021/12/01 13:29:32;;;;;;;8.17;4.80;;;20.90;31.60;;;;;;6103181;28;20243;-65
2021/12/01 13:32:38;;;;;;;6.57;5.13;;;19.70;33.80;;;;;;6098100;28;20244;-65
2021/12/01 13:35:42;;;;;;;9.63;5.50;;;19.00;35.20;;;;;;6102532;28;20255;-65
2021/12/01 13:38:46;;;;;;;5.87;5.33;;;19.10;36.80;;;;;;6103087;28;20236;-67
2021/12/01 13:41:52;;;;;;;5.77;4.83;;;21.00;35.20;;;;;;6102769;28;20696;-65
2021/12/01 13:44:56;;;;;;;5.10;4.60;;;23.20;32.50;;;;;;6103338;28;20235;-66
2021/12/01 13:48:07;;;;;;;7.73;4.83;;;25.10;30.00;;;;;;6102751;28;20240;-65
2021/12/01 13:51:13;;;;;;;9.87;5.40;;;26.40;28.60;;;;;;6102295;28;20248;-67
2021/12/01 13:54:22;;;;;;;6.40;4.83;;;27.30;27.40;;;;;;6102677;28;20232;-67
2021/12/01 13:57:25;;;;;;;4.60;4.20;;;27.80;26.90;;;;;;6102478;28;20237;-66
2021/12/01 14:00:38;;;;;;;6.07;4.87;;;28.10;26.30;;;;;;6101879;28;20228;-66
2021/12/01 14:03:41;;;;;;;6.53;5.17;;;27.90;26.10;;;;;;6102721;28;20228;-66
2021/12/01 14:06:45;;;;;;;9.67;5.87;;;27.10;26.60;;;;;;6102251;28;20240;-67
2021/12/01 14:10:16;;;;;;;9.17;8.27;;;26.00;27.60;;;;;;6102373;28;20684;-69
2021/12/01 14:13:20;;;;;;;10.00;7.80;;;24.10;29.60;;;;;;6101211;28;20234;-67
2021/12/01 14:16:32;;;;;;;6.20;5.70;;;22.60;30.60;;;;;;6102650;28;20228;-67
2021/12/01 14:19:36;;;;;;;8.13;5.47;;;20.70;32.70;;;;;;6102378;28;20208;-67
2021/12/01 14:22:39;;;;;;;6.00;5.20;;;19.20;35.10;;;;;;6102499;28;20251;-66
2021/12/01 14:25:50;;;;;;;6.10;5.53;;;17.70;37.40;;;;;;6102387;28;20472;-65
2021/12/01 14:28:58;;;;;;;10.70;6.63;;;16.40;39.70;;;;;;6102789;28;20476;-66
2021/12/01 14:32:05;;;;;;;6.43;5.80;;;15.40;41.70;;;;;;6102842;28;20976;-67
2021/12/01 14:35:09;;;;;;;14.23;6.33;;;14.60;43.60;;;;;;6104113;28;20480;-66
2021/12/01 14:38:15;;;;;;;6.00;5.50;;;13.80;45.10;;;;;;6093684;28;20965;-67
2021/12/01 14:41:19;;;;;;;7.07;5.63;;;13.10;47.00;;;;;;6104994;28;20477;-66
2021/12/01 14:44:25;;;;;;;10.07;6.57;;;12.50;48.70;;;;;;6106484;28;20499;-67
2021/12/01 14:47:29;;;;;;;8.13;7.17;;;12.10;50.10;;;;;;6107240;28;20783;-67
2021/12/01 14:50:35;;;;;;;11.77;7.70;;;11.40;52.90;;;;;;6106806;28;20472;-65
2021/12/01 14:53:40;;;;;;;10.97;8.10;;;11.10;54.30;;;;;;6106060;28;20483;-66
2021/12/01 14:56:56;;;;;;;9.97;8.30;;;10.70;56.40;;;;;;6105942;28;20802;-67
2021/12/01 15:00:03;;;;;;;10.40;6.50;;;10.50;58.00;;;;;;6106461;28;20477;-67
2021/12/01 15:03:13;;;;;;;9.80;6.80;;;10.40;59.40;;;;;;6107014;28;20473;-67
2021/12/01 15:06:28;;;;;;;9.27;6.43;;;10.20;61.10;;;;;;6108188;28;20492;-68
2021/12/01 15:09:38;;;;;;;9.03;7.00;;;10.10;63.20;;;;;;6107285;28;20812;-66
2021/12/01 15:12:45;;;;;;;14.20;10.90;;;9.90;66.20;;;;;;6107189;28;20480;-66
2021/12/01 15:15:52;;;;;;;15.90;8.43;;;9.70;68.50;;;;;;6109901;28;20487;-66
2021/12/01 15:19:00;;;;;;;9.57;7.80;;;9.50;69.80;;;;;;6110018;28;20504;-66
2021/12/01 15:22:04;;;;;;;8.83;7.40;;;9.30;72.00;;;;;;6106143;28;20515;-66
2021/12/01 15:25:08;;;;;;;10.00;7.00;;;9.10;73.70;;;;;;6105346;28;20472;-67
2021/12/01 15:28:13;;;;;;;8.83;7.07;;;9.00;75.80;;;;;;6105884;28;20810;-66
2021/12/01 15:31:16;;;;;;;9.47;7.30;;;8.70;77.90;;;;;;6107169;28;20494;-67
2021/12/01 15:34:23;;;;;;;18.63;8.43;;;8.70;79.20;;;;;;6106240;28;20457;-67
2021/12/01 15:37:26;;;;;;;14.20;10.13;;;8.60;80.20;;;;;;6114295;28;20479;-67
2021/12/01 15:40:29;;;;;;;14.70;10.67;;;8.40;81.80;;;;;;6121962;28;20508;-67
2021/12/01 15:43:33;;;;;;;19.67;12.20;;;8.30;83.40;;;;;;6129474;28;20443;-67
2021/12/01 15:46:36;;;;;;;71.80;42.33;;;8.20;84.60;;;;;;6129479;28;20486;-67
2021/12/01 15:49:44;;;;;;;35.00;20.93;;;8.20;86.20;;;;;;6129765;28;20463;-67
2021/12/01 15:52:47;;;;;;;65.17;42.13;;;8.10;87.40;;;;;;6114540;28;20465;-66
2021/12/01 15:55:52;;;;;;;20.67;16.67;;;8.00;88.30;;;;;;6103655;28;20476;-66
2021/12/01 15:58:55;;;;;;;20.53;13.80;;;8.00;89.10;;;;;;6104347;28;20469;-66
2021/12/01 16:01:58;;;;;;;17.13;11.30;;;8.00;90.00;;;;;;6105215;28;20476;-66
2021/12/01 16:05:03;;;;;;;18.57;11.73;;;7.90;90.30;;;;;;6105030;28;20976;-66
2021/12/01 16:08:06;;;;;;;12.30;9.13;;;7.80;90.70;;;;;;6104769;28;20485;-66
2021/12/01 16:11:11;;;;;;;19.53;11.40;;;7.80;91.10;;;;;;6105089;28;20484;-67
2021/12/01 16:14:14;;;;;;;15.23;9.63;;;7.70;91.70;;;;;;6104726;28;20480;-66
2021/12/01 16:17:18;;;;;;;9.80;8.80;;;7.70;92.00;;;;;;6104814;28;20480;-65
2021/12/01 16:20:23;;;;;;;15.67;9.63;;;7.70;92.00;;;;;;6104416;28;20472;-65